Time;durP1;ratioP1;P1;durP2;ratioP2;P2;SDS_P1;SDS_P2;PMS_P1;PMS_P2;Temp;Humidity;BMP_temperature;BMP_pressure;BME280_temperature;BME280_humidity;BME280_pressure;Samples;Min_cycle;Max_cycle;Signal;HPM_P1;HPM_P2
2020/12/14 00:02:17;;;;;;;34.50;22.52;;;;;;;-0.44;100.00;101191.19;1785226;79;21575;-89
2020/12/14 00:05:15;;;;;;;31.75;20.10;;;;;;;-0.45;100.00;101189.53;1807409;79;21147;-90
2020/12/14 00:07:49;;;;;;;40.28;22.17;;;;;;;-0.44;100.00;101186.08;1807624;79;21120;-90
2020/12/14 00:10:18;;;;;;;33.18;21.05;;;;;;;-0.44;100.00;101187.35;1807598;79;21131;-90
2020/12/14 00:12:46;;;;;;;36.35;21.27;;;;;;;-0.44;100.00;101189.08;1807812;79;21155;-89
2020/12/14 00:15:14;;;;;;;35.98;20.90;;;;;;;-0.44;100.00;101191.64;1807549;79;21367;-89
2020/12/14 00:17:42;;;;;;;35.03;22.32;;;;;;;-0.44;100.00;101195.03;1807493;79;21584;-90
2020/12/14 00:20:12;;;;;;;35.00;22.30;;;;;;;-0.43;100.00;101196.72;1807637;79;21144;-89
2020/12/14 00:22:42;;;;;;;37.80;22.60;;;;;;;-0.43;100.00;101201.01;1807582;79;21123;-89
2020/12/14 00:25:10;;;;;;;38.13;21.90;;;;;;;-0.44;100.00;101198.87;1807817;79;21060;-89
2020/12/14 00:27:38;;;;;;;34.80;21.65;;;;;;;-0.43;100.00;101195.44;1807569;79;21363;-89
2020/12/14 00:30:13;;;;;;;33.40;21.00;;;;;;;-0.43;100.00;101194.16;1807499;79;21147;-89
2020/12/14 00:32:42;;;;;;;43.15;23.47;;;;;;;-0.43;100.00;101197.17;1807544;79;21112;-90
2020/12/14 00:35:11;;;;;;;36.03;22.52;;;;;;;-0.44;100.00;101187.80;1807606;79;21230;-89
2020/12/14 00:37:46;;;;;;;35.40;22.13;;;;;;;-0.46;100.00;101184.00;1807590;79;21103;-90
2020/12/14 00:40:16;;;;;;;36.25;20.90;;;;;;;-0.48;100.00;101181.45;1807743;79;21095;-90
2020/12/14 00:42:44;;;;;;;36.70;21.97;;;;;;;-0.48;100.00;101175.06;1806469;79;21174;-89
2020/12/14 00:45:13;;;;;;;33.78;22.22;;;;;;;-0.49;100.00;101174.68;1805029;79;21127;-89
2020/12/14 00:47:41;;;;;;;35.65;23.40;;;;;;;-0.50;100.00;101181.09;1804916;79;21227;-89
2020/12/14 00:50:09;;;;;;;37.95;22.85;;;;;;;-0.51;100.00;101171.72;1805079;79;21156;-89
2020/12/14 00:52:40;;;;;;;37.35;23.20;;;;;;;-0.51;100.00;101170.44;1804973;79;22070;-89
2020/12/14 00:55:08;;;;;;;34.60;20.15;;;;;;;-0.51;100.00;101164.91;1805079;79;21182;-89
2020/12/14 00:57:38;;;;;;;37.90;22.58;;;;;;;-0.52;100.00;101159.83;1804933;79;21152;-89
2020/12/14 01:00:06;;;;;;;36.70;21.55;;;;;;;-0.52;100.00;101157.27;1805053;79;21135;-89
2020/12/14 01:06:31;;;;;;;45.35;24.18;;;;;;;-0.56;100.00;101142.39;1805055;79;21248;-89
2020/12/14 01:08:59;;;;;;;33.23;21.33;;;;;;;-0.58;100.00;101149.69;1805118;79;21066;-89
2020/12/14 01:11:29;;;;;;;41.00;23.70;;;;;;;-0.60;100.00;101150.19;1805188;79;22088;-89
2020/12/14 01:13:57;;;;;;;41.55;23.70;;;;;;;-0.62;100.00;101147.63;1805165;79;21118;-89
2020/12/14 01:16:32;;;;;;;36.90;21.75;;;;;;;-0.64;100.00;101141.28;1805142;79;21184;-89
2020/12/14 01:19:08;;;;;;;36.45;21.10;;;;;;;-0.65;100.00;101135.75;1805145;79;21163;-90
2020/12/14 01:21:40;;;;;;;33.33;20.75;;;;;;;-0.64;100.00;101136.16;1790268;79;21120;-90
2020/12/14 01:24:11;;;;;;;32.48;19.90;;;;;;;-0.63;100.00;101134.44;1773156;81;21513;-89
2020/12/14 01:26:39;;;;;;;;;;;;;;;-0.62;100.00;101136.13;1804617;79;21093;-90
2020/12/14 01:29:09;;;;;;;38.90;22.55;;;;;;;-0.61;100.00;101133.97;1805065;79;20217;-90
2020/12/14 01:31:37;;;;;;;36.45;22.25;;;;;;;-0.60;100.00;101132.28;1804946;79;22128;-89
2020/12/14 01:34:05;;;;;;;41.37;21.95;;;;;;;-0.60;100.00;101134.84;1804959;79;21159;-89
2020/12/14 01:36:33;;;;;;;39.25;22.50;;;;;;;-0.61;100.00;101137.81;1787609;79;21135;-89
2020/12/14 01:39:05;;;;;;;37.13;21.65;;;;;;;-0.61;100.00;101140.38;1773192;80;21402;-89
2020/12/14 01:41:40;;;;;;;37.28;23.07;;;;;;;-0.61;100.00;101139.09;1773225;81;21516;-89
2020/12/14 01:44:14;;;;;;;35.60;21.10;;;;;;;-0.60;100.00;101142.51;1775193;80;21434;-89
2020/12/14 01:46:45;;;;;;;34.38;21.33;;;;;;;-0.59;100.00;101149.28;1775615;80;21128;-89
2020/12/14 01:49:21;;;;;;;36.90;22.27;;;;;;;-0.57;100.00;101155.22;1775727;80;21199;-89
2020/12/14 01:51:50;;;;;;;41.23;23.35;;;;;;;-0.55;100.00;101153.48;1775655;80;21187;-89
2020/12/14 01:54:33;;;;;;;40.95;23.77;;;;;;;-0.54;100.00;101150.05;1775779;80;21092;-90
2020/12/14 01:57:03;;;;;;;36.75;22.55;;;;;;;-0.55;100.00;101150.47;1771267;80;22356;-89
2020/12/14 02:00:00;;;;;;;41.30;24.18;;;;;;;-0.55;100.00;101157.32;1775891;79;21201;-89
2020/12/14 02:02:30;;;;;;;36.80;21.52;;;;;;;-0.56;100.00;101153.91;1747498;81;21124;-90
2020/12/14 02:05:02;;;;;;;34.18;20.57;;;;;;;-0.56;100.00;101156.91;1747798;81;21081;-88
2020/12/14 02:07:34;;;;;;;36.73;22.15;;;;;;;-0.55;100.00;101163.27;1748804;81;21537;-90
2020/12/14 02:10:07;;;;;;;38.88;23.83;;;;;;;-0.53;100.00;101163.25;1748908;82;21374;-89
2020/12/14 02:12:36;;;;;;;39.45;22.58;;;;;;;-0.52;100.00;101154.71;1748817;82;21143;-89
2020/12/14 02:15:06;;;;;;;39.08;23.18;;;;;;;-0.53;100.00;101155.58;1748936;81;21140;-89
2020/12/14 02:17:35;;;;;;;36.73;22.33;;;;;;;-0.52;100.00;101167.50;1749100;80;21116;-89
2020/12/14 02:20:07;;;;;;;40.55;23.10;;;;;;;-0.52;100.00;101166.23;1748867;81;21159;-89
2020/12/14 02:22:39;;;;;;;36.65;22.55;;;;;;;-0.51;100.00;101157.23;1748833;81;22337;-89
2020/12/14 02:25:09;;;;;;;33.85;21.07;;;;;;;-0.51;100.00;101145.72;1748834;80;21535;-89
2020/12/14 02:27:38;;;;;;;43.80;24.20;;;;;;;-0.49;100.00;101139.28;1750825;80;21136;-89
2020/12/14 02:30:06;;;;;;;44.88;24.77;;;;;;;-0.48;100.00;101135.39;1786701;76;21261;-89
2020/12/14 02:32:37;;;;;;;51.48;26.00;;;;;;;-0.48;100.00;101152.48;1853308;76;22222;-89
2020/12/14 02:35:07;;;;;;;45.58;25.27;;;;;;;-0.49;100.00;101154.21;1848906;76;21413;-90
2020/12/14 02:37:40;;;;;;;45.95;26.70;;;;;;;-0.49;100.00;101150.80;1844820;77;21124;-90
2020/12/14 02:40:11;;;;;;;39.95;24.77;;;;;;;-0.48;100.00;101157.14;1842029;77;21140;-90
2020/12/14 02:42:41;;;;;;;;;;;;;;;-0.48;100.00;101148.19;1844424;77;21585;-91
2020/12/14 02:45:11;;;;;;;42.88;23.98;;;;;;;-0.46;100.00;101152.02;1837820;77;20630;-91
2020/12/14 02:47:40;;;;;;;45.33;25.40;;;;;;;-0.46;100.00;101163.53;1842710;76;22345;-89
2020/12/14 02:50:09;;;;;;;45.05;25.92;;;;;;;-0.46;100.00;101168.66;1822312;78;21186;-89
2020/12/14 02:52:37;;;;;;;54.55;28.60;;;;;;;-0.44;100.00;101164.33;1832728;77;21585;-92
2020/12/14 02:55:08;;;;;;;44.73;24.57;;;;;;;-0.44;100.00;101166.88;1812928;79;21164;-91
2020/12/14 02:57:37;;;;;;;38.53;24.47;;;;;;;-0.44;100.00;101164.33;1813167;79;21133;-91
2020/12/14 03:00:07;;;;;;;40.23;23.80;;;;;;;-0.44;100.00;101164.33;1813032;79;22269;-91
2020/12/14 03:02:38;;;;;;;39.30;24.43;;;;;;;-0.43;100.00;101169.02;1811972;79;21207;-91
2020/12/14 03:05:06;;;;;;;42.53;25.05;;;;;;;-0.42;100.00;101166.42;1813008;79;21846;-91
2020/12/14 03:07:34;;;;;;;39.53;23.30;;;;;;;-0.41;100.00;101162.16;1812989;79;21580;-92
2020/12/14 03:10:31;;;;;;;43.83;26.45;;;;;;;-0.40;100.00;101160.84;1813029;79;21149;-91
2020/12/14 03:12:59;;;;;;;42.93;26.40;;;;;;;-0.39;100.00;101156.13;1812991;79;22264;-91
2020/12/14 03:15:27;;;;;;;44.65;26.37;;;;;;;-0.41;100.00;101160.44;1812909;79;21411;-91
2020/12/14 03:17:57;;;;;;;41.60;23.92;;;;;;;-0.42;100.00;101148.95;1813160;79;21181;-91
2020/12/14 03:20:27;;;;;;;44.25;24.92;;;;;;;-0.45;100.00;101154.98;1813081;79;21121;-90
2020/12/14 03:22:57;;;;;;;42.25;23.83;;;;;;;-0.46;100.00;101153.72;1812744;79;21101;-91
2020/12/14 03:25:25;;;;;;;44.75;23.85;;;;;;;-0.50;100.00;101160.20;1813031;79;21374;-91
2020/12/14 03:27:55;;;;;;;42.73;24.75;;;;;;;-0.51;100.00;101161.06;1812872;79;21715;-88
2020/12/14 03:30:43;;;;;;;47.73;27.48;;;;;;;-0.50;100.00;101159.34;1811077;79;21166;-89
2020/12/14 03:34:01;;;;;;;45.25;26.68;;;;;;;-0.51;100.00;101163.63;1805751;79;21622;-92
2020/12/14 03:36:30;;;;;;;47.08;25.08;;;;;;;-0.51;100.00;101173.00;1801579;79;21555;-91
2020/12/14 03:38:59;;;;;;;45.75;25.77;;;;;;;-0.51;100.00;101173.00;1809645;79;22095;-91
2020/12/14 03:41:31;;;;;;;40.60;24.32;;;;;;;-0.53;100.00;101176.88;1803804;79;21115;-90
2020/12/14 03:44:05;;;;;;;45.15;24.92;;;;;;;-0.53;100.00;101181.17;1788375;79;21083;-90
2020/12/14 03:54:26;;;;;;;48.23;25.77;;;;;;;-0.49;100.00;101169.98;1813933;78;21405;-90
2020/12/14 03:57:26;;;;;;;52.05;27.35;;;;;;;-0.48;100.00;101167.38;1807406;78;21163;-90
2020/12/14 04:00:25;;;;;;;48.08;27.05;;;;;;;-0.47;100.00;101165.69;1781661;80;21159;-91
2020/12/14 04:03:26;;;;;;;41.65;24.77;;;;;;;-0.47;100.00;101154.17;1786339;80;21124;-91
2020/12/14 04:05:55;;;;;;;49.38;27.48;;;;;;;-0.48;100.00;101143.08;1762013;81;21533;-90
2020/12/14 04:08:24;;;;;;;44.77;26.20;;;;;;;-0.50;100.00;101130.77;1762340;81;22264;-90
2020/12/14 04:10:57;;;;;;;40.67;23.55;;;;;;;-0.48;100.00;101134.57;1783308;80;21158;-90
2020/12/14 04:16:56;;;;;;;46.90;26.23;;;;;;;-0.50;100.00;101127.35;1789403;79;21146;-92
2020/12/14 04:19:24;;;;;;;48.78;27.40;;;;;;;-0.51;100.00;101133.34;1783165;80;21537;-91
2020/12/14 04:22:07;;;;;;;47.85;25.60;;;;;;;-0.52;100.00;101145.76;1782795;80;21367;-91
2020/12/14 04:24:35;;;;;;;44.85;24.72;;;;;;;-0.53;100.00;101149.19;1783312;80;21126;-90
2020/12/14 04:31:09;;;;;;;54.25;28.92;;;;;;;-0.53;100.00;101141.05;1800357;77;21124;-94
2020/12/14 04:34:27;;;;;;;49.60;28.75;;;;;;;-0.54;100.00;101137.27;1817504;79;21089;-94
2020/12/14 04:37:23;;;;;;;42.48;24.20;;;;;;;-0.54;100.00;101138.54;1816973;77;21343;-88
2020/12/14 04:39:51;;;;;;;37.83;22.90;;;;;;;-0.55;100.00;101145.36;1816975;78;21140;-87
2020/12/14 04:42:20;;;;;;;114.47;54.95;;;;;;;-0.54;100.00;101154.72;1816981;77;21168;-87
2020/12/14 04:44:53;;;;;;;59.90;35.13;;;;;;;-0.53;100.00;101161.98;1817032;78;21525;-88
2020/12/14 04:47:54;;;;;;;276.73;97.17;;;;;;;-0.53;100.00;101161.52;1813739;77;21140;-88
2020/12/14 04:50:57;;;;;;;51.60;28.60;;;;;;;-0.53;100.00;101164.53;1817064;77;21509;-88
2020/12/14 04:53:57;;;;;;;379.60;100.92;;;;;;;-0.56;100.00;101152.62;1816998;78;21120;-89
2020/12/14 05:01:22;;;;;;;37.70;22.32;;;;;;;-0.59;100.00;101154.41;1817135;79;21069;-88
2020/12/14 05:04:22;;;;;;;38.85;22.55;;;;;;;-0.60;100.00;101161.70;1817136;77;21120;-88
2020/12/14 05:11:14;;;;;;;57.78;31.20;;;;;;;-0.56;100.00;101158.19;1817141;79;21169;-88
2020/12/14 05:18:33;;;;;;;292.15;77.58;;;;;;;-0.56;100.00;101162.02;1817193;77;21125;-89
2020/12/14 05:21:30;;;;;;;91.97;51.50;;;;;;;-0.56;100.00;101163.30;1817190;79;21093;-89
2020/12/14 05:24:02;;;;;;;42.98;25.23;;;;;;;-0.58;100.00;101159.92;1813187;79;22129;-88
2020/12/14 05:41:44;;;;;;;54.70;32.28;;;;;;;-0.49;100.00;101177.66;1845223;77;21587;-89
2020/12/14 05:44:44;;;;;;;41.10;25.52;;;;;;;-0.45;100.00;101169.06;1845083;77;21120;-89
2020/12/14 05:51:48;;;;;;;37.58;21.65;;;;;;;-0.41;100.00;101183.91;1834131;78;21008;-96
2020/12/14 05:54:38;;;;;;;37.03;21.80;;;;;;;-0.36;100.00;101183.38;1799940;79;21162;-89
2020/12/14 05:57:36;;;;;;;34.78;23.20;;;;;;;-0.35;100.00;101196.13;1811807;79;22255;-89
2020/12/14 06:04:00;;;;;;;45.25;26.90;;;;;;;-0.31;100.00;101193.06;1835331;77;21646;-89
2020/12/14 06:07:02;;;;;;;86.10;45.00;;;;;;;-0.32;100.00;101193.52;1848908;77;21091;-89
2020/12/14 06:27:38;;;;;;;39.65;24.50;;;;;;;-0.25;100.00;101217.70;1779259;79;21071;-88
2020/12/14 06:30:35;;;;;;;43.75;27.05;;;;;;;-0.25;100.00;101225.38;1761461;80;21265;-88
2020/12/14 06:33:12;;;;;;;48.13;30.75;;;;;;;-0.23;100.00;101222.36;1765374;80;21499;-89
2020/12/14 06:35:50;;;;;;;40.88;25.77;;;;;;;-0.21;100.00;101218.89;1753621;80;21151;-88
2020/12/14 06:38:47;;;;;;;44.30;26.37;;;;;;;-0.20;100.00;101215.91;1725484;83;21577;-89
2020/12/14 06:41:22;;;;;;;42.30;27.82;;;;;;;-0.21;100.00;101225.29;1761912;80;21154;-88
2020/12/14 06:44:06;;;;;;;52.73;29.48;;;;;;;-0.18;100.00;101231.64;1760977;80;21362;-90
2020/12/14 06:46:36;;;;;;;44.25;28.67;;;;;;;-0.09;100.00;101231.05;1748148;80;21178;-90
2020/12/14 06:49:09;;;;;;;48.17;28.50;;;;;;;0.02;100.00;101229.09;1763043;80;21145;-91
2020/12/14 06:55:58;;;;;;;42.13;26.30;;;;;;;0.13;100.00;101228.85;1774705;79;21162;-90
2020/12/14 06:58:41;;;;;;;45.40;25.90;;;;;;;0.27;100.00;101236.24;1788703;79;22101;-91
2020/12/14 07:02:02;;;;;;;46.92;26.40;;;;;;;0.29;100.00;101235.78;1784889;79;21114;-90
2020/12/14 07:04:36;;;;;;;43.50;25.45;;;;;;;0.28;100.00;101235.37;1699114;83;21146;-91
2020/12/14 07:14:30;;;;;;;45.23;26.15;;;;;;;0.21;100.00;101230.80;1693143;83;21186;-91
2020/12/14 07:17:28;;;;;;;42.83;25.08;;;;;;;0.22;100.00;101226.09;1697208;83;21614;-90
2020/12/14 07:24:40;;;;;;;44.55;24.85;;;;;;;0.25;100.00;101231.16;1750353;80;21150;-92
2020/12/14 07:27:31;;;;;;;52.67;24.52;;;;;;;0.28;100.00;101237.93;1758766;81;21169;-90
2020/12/14 07:37:34;;;;;;;39.73;25.00;;;;;;;0.40;100.00;101236.36;1723961;82;21087;-90
2020/12/14 07:40:10;;;;;;;39.27;23.60;;;;;;;0.56;100.00;101231.73;1737820;81;21276;-90
2020/12/14 07:42:48;;;;;;;37.10;22.25;;;;;;;0.55;100.00;101227.48;1748943;80;21664;-89
2020/12/14 07:45:28;;;;;;;39.63;23.80;;;;;;;0.55;100.00;101221.53;1747783;80;21365;-90
2020/12/14 07:47:56;;;;;;;48.38;24.05;;;;;;;0.51;100.00;101218.20;1758136;81;21201;-91
2020/12/14 07:50:26;;;;;;;41.40;23.42;;;;;;;0.45;100.00;101218.31;1753989;81;21150;-91
2020/12/14 07:52:55;;;;;;;44.42;25.65;;;;;;;0.43;100.00;101214.97;1757385;81;21546;-90
